Time;durP1;ratioP1;P1;durP2;ratioP2;P2;SDS_P1;SDS_P2;PMS_P1;PMS_P2;Temp;Humidity;BMP_temperature;BMP_pressure;BME280_temperature;BME280_humidity;BME280_pressure;Samples;Min_cycle;Max_cycle;Signal;HPM_P1;HPM_P2
2021/03/15 00:00:26;;;;;;;;;;;;;;;5.55;71.68;99502.33;1725015;82;20229;-65
2021/03/15 00:02:55;;;;;;;;;;;;;;;5.54;71.76;99503.38;1735799;82;20249;-64
2021/03/15 00:05:23;;;;;;;;;;;;;;;5.55;71.65;99505.83;1704288;82;20294;-64
2021/03/15 00:07:52;;;;;;;;;;;;;;;5.55;71.63;99502.33;1766170;80;22193;-65
2021/03/15 00:10:21;;;;;;;;;;;;;;;5.56;71.58;99499.98;1735692;80;20223;-65
2021/03/15 00:12:49;;;;;;;;;;;;;;;5.56;71.56;99497.33;1750810;80;20219;-65
2021/03/15 00:15:20;;;;;;;;;;;;;;;5.58;71.49;99497.93;1741472;81;20561;-65
2021/03/15 00:17:48;;;;;;;;;;;;;;;5.58;71.44;99503.25;1710428;83;20248;-64
2021/03/15 00:20:18;;;;;;;;;;;;;;;5.59;71.43;99502.23;1725457;82;20259;-66
2021/03/15 00:22:48;;;;;;;;;;;;;;;5.61;71.35;99505.00;1724285;82;20138;-65
2021/03/15 00:25:16;;;;;;;;;;;;;;;5.63;71.21;99502.12;1725669;82;20255;-67
2021/03/15 00:27:44;;;;;;;;;;;;;;;5.61;71.20;99498.87;1725812;81;20158;-67
2021/03/15 00:30:15;;;;;;;;;;;;;;;5.62;71.21;99495.17;1724049;82;20623;-67
2021/03/15 00:32:44;;;;;;;;;;;;;;;5.65;71.21;99488.63;1730191;82;21212;-66
2021/03/15 00:35:14;;;;;;;;;;;;;;;5.66;71.12;99489.75;1722714;82;20245;-66
2021/03/15 00:37:42;;;;;;;;;;;;;;;5.64;71.12;99487.81;1640392;86;20318;-67
2021/03/15 00:40:12;;;;;;;;;;;;;;;5.65;71.12;99484.64;1639390;86;20273;-66
2021/03/15 00:42:44;;;;;;;;;;;;;;;5.69;71.06;99480.55;1640141;86;20555;-66
2021/03/15 00:45:13;;;;;;;;;;;;;;;5.72;70.97;99490.77;1640586;86;20608;-68
2021/03/15 00:47:41;;;;;;;;;;;;;;;5.72;70.90;99486.25;1640339;86;20197;-66
2021/03/15 00:50:19;;;;;;;;;;;;;;;5.73;70.82;99488.42;1640554;86;20188;-66
2021/03/15 00:52:53;;;;;;;;;;;;;;;5.78;70.79;99487.27;1799848;77;20257;-67
2021/03/15 00:55:22;;;;;;;;;;;;;;;5.73;70.72;99484.43;1769409;80;20153;-66
2021/03/15 00:57:51;;;;;;;;;;;;;;;5.76;70.72;99478.69;1770436;80;22585;-67
2021/03/15 01:00:23;;;;;;;;;;;;;;;5.80;70.68;99471.94;1736625;80;20194;-66
2021/03/15 01:02:53;;;;;;;;;;;;;;;5.88;70.49;99467.70;1769153;80;21013;-67
2021/03/15 01:05:24;;;;;;;;;;;;;;;5.92;70.30;99469.45;1773692;79;20110;-67
2021/03/15 01:07:53;;;;;;;;;;;;;;;5.94;70.18;99464.72;1771137;80;21236;-67
2021/03/15 01:10:23;;;;;;;;;;;;;;;5.99;70.09;99462.79;1776791;79;21819;-67
2021/03/15 01:12:52;;;;;;;;;;;;;;;6.05;69.97;99468.59;1769304;80;20201;-67
2021/03/15 01:15:21;;;;;;;;;;;;;;;6.10;69.77;99466.94;1771950;80;20175;-67
2021/03/15 01:17:51;;;;;;;;;;;;;;;6.15;69.63;99463.64;1770194;80;20518;-65
2021/03/15 01:20:19;;;;;;;;;;;;;;;6.19;69.32;99468.05;1765559;80;20266;-65
2021/03/15 01:22:47;;;;;;;;;;;;;;;6.17;69.20;99460.77;1770295;80;21209;-64
2021/03/15 01:25:18;;;;;;;;;;;;;;;6.17;69.06;99460.27;1770568;80;20166;-68
2021/03/15 01:27:46;;;;;;;;;;;;;;;6.16;69.01;99458.63;1771019;80;20562;-65
2021/03/15 01:30:15;;;;;;;;;;;;;;;6.15;68.94;99455.66;1682066;84;21721;-65
2021/03/15 01:32:43;;;;;;;;;;;;;;;6.14;68.89;99453.52;1681935;84;20250;-64
2021/03/15 01:35:12;;;;;;;;;;;;;;;6.13;68.95;99451.87;1679137;84;21122;-65
2021/03/15 01:37:40;;;;;;;;;;;;;;;6.12;68.94;99452.93;1679474;84;20177;-65
2021/03/15 01:40:08;;;;;;;;;;;;;;;6.14;68.96;99451.39;1681181;84;20268;-65
2021/03/15 01:42:36;;;;;;;;;;;;;;;6.18;68.86;99453.09;1658752;84;20291;-67
2021/03/15 01:45:05;;;;;;;;;;;;;;;6.18;68.78;99449.11;1681076;84;20298;-67
2021/03/15 01:47:33;;;;;;;;;;;;;;;6.17;68.68;99453.63;1691930;81;22022;-66
2021/03/15 01:50:02;;;;;;;;;;;;;;;6.10;68.68;99446.17;1770070;80;20227;-68
2021/03/15 01:52:30;;;;;;;;;;;;;;;6.07;68.78;99439.95;1759828;80;20250;-67
2021/03/15 01:54:58;;;;;;;;;;;;;;;6.07;68.80;99439.42;1761959;80;20598;-66
2021/03/15 01:57:33;;;;;;;;;;;;;;;6.10;68.87;99437.67;1819091;77;20686;-67
2021/03/15 02:00:03;;;;;;;;;;;;;;;6.05;68.91;99438.00;1814807;79;20172;-67
2021/03/15 02:02:35;;;;;;;;;;;;;;;6.06;68.87;99443.63;1813168;79;22336;-63
2021/03/15 02:05:04;;;;;;;;;;;;;;;6.05;68.82;99430.84;1813486;79;20133;-62
2021/03/15 02:07:32;;;;;;;;;;;;;;;6.03;68.79;99432.88;1782291;79;20129;-64
2021/03/15 02:10:00;;;;;;;;;;;;;;;5.99;68.87;99433.52;1782735;79;20539;-66
2021/03/15 02:12:49;;;;;;;;;;;;;;;5.96;68.89;99432.89;1814433;79;20172;-65
2021/03/15 02:15:54;;;;;;;;;;;;;;;5.94;69.00;99431.47;1813037;79;21134;-65
2021/03/15 02:18:45;;;;;;;;;;;;;;;5.95;69.09;99433.11;1814211;79;20109;-66
2021/03/15 02:21:45;;;;;;;;;;;;;;;5.94;69.12;99428.81;1814205;79;20125;-66
2021/03/15 02:24:24;;;;;;;;;;;;;;;5.96;69.10;99433.39;1814457;79;20534;-65
2021/03/15 02:27:08;;;;;;;;;;;;;;;5.94;69.09;99440.78;1815105;78;20232;-66
2021/03/15 02:30:00;;;;;;;;;;;;;;;5.92;69.12;99440.19;1812217;79;20165;-64
2021/03/15 02:32:46;;;;;;;;;;;;;;;5.84;69.21;99441.73;1814234;79;20892;-66
2021/03/15 02:35:16;;;;;;;;;;;;;;;5.74;69.45;99442.16;1814873;79;20430;-65
2021/03/15 02:37:55;;;;;;;;;;;;;;;5.68;69.78;99446.98;1813542;79;20187;-65
2021/03/15 02:40:29;;;;;;;;;;;;;;;5.59;70.11;99443.24;1813682;79;20534;-66
2021/03/15 02:42:59;;;;;;;;;;;;;;;5.51;70.37;99453.28;1813251;79;21621;-64
2021/03/15 02:45:27;;;;;;;;;;;;;;;5.47;70.60;99446.73;1814369;79;20589;-64
2021/03/15 02:47:54;;;;;;;;;;;;;;;5.43;70.78;99452.95;1812260;79;20550;-64
2021/03/15 02:50:23;;;;;;;;;;;;;;;5.40;70.96;99453.38;1814317;79;20157;-65
2021/03/15 02:52:51;;;;;;;;;;;;;;;5.41;71.03;99450.51;1799391;79;20247;-65
2021/03/15 02:55:27;;;;;;;;;;;;;;;5.49;71.11;99454.81;1826656;77;20268;-65
2021/03/15 02:57:57;;;;;;;;;;;;;;;5.44;71.11;99451.95;1819095;79;20486;-66
2021/03/15 03:00:25;;;;;;;;;;;;;;;5.46;71.16;99453.88;1818845;79;21195;-65
2021/03/15 03:02:53;;;;;;;;;;;;;;;5.48;71.12;99456.33;1818930;79;20129;-64
2021/03/15 03:05:21;;;;;;;;;;;;;;;5.48;71.10;99453.66;1818796;79;20228;-64
2021/03/15 03:07:52;;;;;;;;;;;;;;;5.49;71.15;99461.95;1814484;79;20136;-64
2021/03/15 03:10:21;;;;;;;;;;;;;;;5.51;71.20;99462.06;1818880;79;20137;-65
2021/03/15 03:12:50;;;;;;;;;;;;;;;5.58;71.19;99460.21;1818907;79;22752;-64
2021/03/15 03:15:21;;;;;;;;;;;;;;;5.63;71.05;99467.56;1818958;78;20187;-65
2021/03/15 03:17:49;;;;;;;;;;;;;;;5.68;70.95;99463.75;1797635;79;20133;-65
2021/03/15 03:20:19;;;;;;;;;;;;;;;5.67;70.87;99456.82;1815525;79;20267;-65
2021/03/15 03:22:48;;;;;;;;;;;;;;;5.64;70.89;99459.90;1818987;78;20204;-64
2021/03/15 03:25:16;;;;;;;;;;;;;;;5.56;71.06;99460.91;1819099;79;22158;-65
2021/03/15 03:27:47;;;;;;;;;;;;;;;5.48;71.38;99462.48;1781792;79;20273;-64
2021/03/15 03:30:16;;;;;;;;;;;;;;;5.40;71.68;99460.86;1818571;79;20168;-64
2021/03/15 03:32:44;;;;;;;;;;;;;;;5.34;71.98;99466.97;1818813;79;20148;-65
2021/03/15 03:35:15;;;;;;;;;;;;;;;5.31;72.24;99471.38;1818534;79;20244;-64
2021/03/15 03:37:43;;;;;;;;;;;;;;;5.34;72.39;99464.31;1818289;79;21187;-67
2021/03/15 03:40:11;;;;;;;;;;;;;;;5.41;72.45;99466.98;1784309;79;21023;-65
2021/03/15 03:42:39;;;;;;;;;;;;;;;5.44;72.52;99460.73;1819192;79;20200;-65
2021/03/15 03:45:08;;;;;;;;;;;;;;;5.50;72.54;99466.26;1694240;83;20278;-65
2021/03/15 03:47:37;;;;;;;;;;;;;;;5.53;72.52;99467.97;1725342;83;20251;-66
2021/03/15 03:50:07;;;;;;;;;;;;;;;5.55;72.56;99461.95;1723125;83;21194;-67
2021/03/15 03:52:34;;;;;;;;;;;;;;;5.58;72.52;99472.67;1712840;83;20253;-70
2021/03/15 03:55:05;;;;;;;;;;;;;;;5.60;72.54;99467.98;1688022;83;20209;-65
2021/03/15 03:57:33;;;;;;;;;;;;;;;5.60;72.62;99469.31;1686356;85;20154;-66
2021/03/15 04:00:11;;;;;;;;;;;;;;;5.64;72.65;99469.20;1686121;85;20309;-66
2021/03/15 04:02:49;;;;;;;;;;;;;;;5.66;72.68;99468.47;1708350;80;21206;-66
2021/03/15 04:05:23;;;;;;;;;;;;;;;5.69;72.67;99470.71;1775490;80;20536;-66
2021/03/15 04:08:03;;;;;;;;;;;;;;;5.73;72.65;99477.78;1775265;81;20239;-65
2021/03/15 04:10:31;;;;;;;;;;;;;;;5.73;72.62;99473.27;1775265;81;20215;-65
2021/03/15 04:13:05;;;;;;;;;;;;;;;5.72;72.67;99474.81;1769393;81;20219;-65
2021/03/15 04:15:33;;;;;;;;;;;;;;;5.73;72.72;99473.80;1774837;81;20572;-64
2021/03/15 04:18:01;;;;;;;;;;;;;;;5.74;72.74;99472.74;1751000;81;20220;-64
2021/03/15 04:20:32;;;;;;;;;;;;;;;5.74;72.71;99472.74;1750897;80;20187;-64
2021/03/15 04:23:00;;;;;;;;;;;;;;;5.73;72.72;99473.80;1775061;81;20528;-67
2021/03/15 04:25:29;;;;;;;;;;;;;;;5.72;72.80;99471.62;1775447;81;20223;-62
2021/03/15 04:27:58;;;;;;;;;;;;;;;5.73;72.90;99466.63;1684438;85;22135;-65
2021/03/15 04:30:53;;;;;;;;;;;;;;;5.76;73.01;99466.20;1852428;76;20223;-65
2021/03/15 04:33:21;;;;;;;;;;;;;;;5.71;73.13;99471.83;1835272;77;20489;-67
2021/03/15 04:35:48;;;;;;;;;;;;;;;5.66;73.27;99473.80;1829089;77;21189;-67
2021/03/15 04:38:16;;;;;;;;;;;;;;;5.61;73.49;99475.75;1839346;76;20275;-69
2021/03/15 04:40:46;;;;;;;;;;;;;;;5.60;73.62;99472.77;1810970;77;20169;-69
2021/03/15 04:43:13;;;;;;;;;;;;;;;5.65;73.70;99474.81;1827943;76;20144;-67
2021/03/15 04:45:44;;;;;;;;;;;;;;;5.68;73.72;99474.91;1817005;76;20262;-67
2021/03/15 04:48:20;;;;;;;;;;;;;;;5.69;73.73;99472.56;1787973;77;20492;-68
2021/03/15 04:50:58;;;;;;;;;;;;;;;5.74;73.72;99465.60;1811849;77;20184;-67
2021/03/15 04:53:26;;;;;;;;;;;;;;;5.68;73.70;99469.07;1807256;79;20129;-65
2021/03/15 04:56:00;;;;;;;;;;;;;;;5.67;73.73;99469.28;1804229;79;21160;-67
2021/03/15 04:58:27;;;;;;;;;;;;;;;5.63;73.85;99469.41;1802320;79;20152;-66
2021/03/15 05:00:57;;;;;;;;;;;;;;;5.63;74.02;99471.55;1796353;79;20225;-66
2021/03/15 05:03:25;;;;;;;;;;;;;;;5.64;74.08;99477.67;1670125;85;20463;-66
2021/03/15 05:05:56;;;;;;;;;;;;;;;5.59;74.21;99479.62;1673449;85;20146;-65
2021/03/15 05:08:35;;;;;;;;;;;;;;;5.56;74.41;99476.06;1828113;77;20275;-67
2021/03/15 05:11:03;;;;;;;;;;;;;;;5.47;74.61;99478.63;1800636;79;20109;-65
2021/03/15 05:13:31;;;;;;;;;;;;;;;5.39;74.77;99473.83;1799588;79;22423;-68
2021/03/15 05:15:59;;;;;;;;;;;;;;;5.39;74.98;99471.17;1793547;78;20192;-65
2021/03/15 05:18:27;;;;;;;;;;;;;;;5.44;75.06;99470.03;1801948;78;20130;-65
2021/03/15 05:20:55;;;;;;;;;;;;;;;5.52;75.03;99477.00;1799353;79;20202;-64
2021/03/15 05:23:23;;;;;;;;;;;;;;;5.59;74.99;99475.64;1799917;79;20159;-65
2021/03/15 05:25:52;;;;;;;;;;;;;;;5.54;74.95;99478.92;1800399;79;21144;-68
2021/03/15 05:28:20;;;;;;;;;;;;;;;5.49;75.13;99477.91;1802941;79;20130;-64
2021/03/15 05:30:49;;;;;;;;;;;;;;;5.44;75.25;99474.54;1801498;79;20347;-65
2021/03/15 05:33:19;;;;;;;;;;;;;;;5.41;75.38;99482.41;1801611;79;20109;-67
2021/03/15 05:35:49;;;;;;;;;;;;;;;5.44;75.53;99473.21;1801708;79;20222;-67
2021/03/15 05:38:17;;;;;;;;;;;;;;;5.48;75.60;99478.92;1797415;78;21202;-65
2021/03/15 05:40:45;;;;;;;;;;;;;;;5.43;75.69;99479.05;1801645;79;20149;-63
2021/03/15 05:43:29;;;;;;;;;;;;;;;5.40;75.93;99482.61;1801918;79;20147;-65
2021/03/15 05:46:06;;;;;;;;;;;;;;;5.35;76.04;99483.23;1801527;79;20149;-65
2021/03/15 05:49:11;;;;;;;;;;;;;;;5.37;76.25;99485.69;1761839;79;20216;-63
2021/03/15 05:51:46;;;;;;;;;;;;;;;5.37;76.34;99487.82;1804093;79;21199;-65
2021/03/15 05:54:32;;;;;;;;;;;;;;;5.41;76.42;99489.58;1786473;79;20118;-64
2021/03/15 05:57:30;;;;;;;;;;;;;;;5.47;76.45;99486.09;1747076;79;20251;-64
2021/03/15 06:00:13;;;;;;;;;;;;;;;5.55;76.35;99488.55;1792017;79;20205;-65
2021/03/15 06:03:17;;;;;;;;;;;;;;;5.60;76.25;99488.73;1787174;79;20248;-68
2021/03/15 06:05:47;;;;;;;;;;;;;;;5.69;76.19;99488.52;1785186;79;21210;-67
2021/03/15 06:08:23;;;;;;;;;;;;;;;5.75;75.97;99503.64;1783710;79;20576;-67
2021/03/15 06:11:16;;;;;;;;;;;;;;;5.76;75.85;99503.44;1768866;79;20478;-66
2021/03/15 06:13:42;;;;;;;;;;;;;;;5.76;75.76;99509.28;1784441;79;20132;-66
2021/03/15 06:16:10;;;;;;;;;;;;;;;5.72;75.81;99501.41;1786003;79;20493;-67
2021/03/15 06:18:39;;;;;;;;;;;;;;;5.70;75.92;99510.11;1783393;79;21149;-67
2021/03/15 06:21:09;;;;;;;;;;;;;;;5.63;75.99;99501.33;1783522;79;20314;-67
2021/03/15 06:23:37;;;;;;;;;;;;;;;5.52;76.21;99504.91;1783014;79;20276;-67
2021/03/15 06:26:07;;;;;;;;;;;;;;;5.49;76.44;99503.16;1752309;79;20598;-66
2021/03/15 06:28:35;;;;;;;;;;;;;;;5.48;76.59;99502.36;1780819;79;20166;-66
2021/03/15 06:31:05;;;;;;;;;;;;;;;5.54;76.66;99494.88;1724644;79;21208;-66
2021/03/15 06:33:34;;;;;;;;;;;;;;;5.56;76.68;99492.81;1783442;79;20200;-65
2021/03/15 06:36:03;;;;;;;;;;;;;;;5.52;76.74;99491.63;1783394;79;20130;-66
2021/03/15 06:38:33;;;;;;;;;;;;;;;5.57;76.79;99494.46;1783578;79;20239;-69
2021/03/15 06:41:02;;;;;;;;;;;;;;;5.65;76.74;99500.07;1782084;79;20185;-64
2021/03/15 06:43:30;;;;;;;;;;;;;;;5.73;76.64;99497.73;1750303;79;21426;-64
2021/03/15 06:45:58;;;;;;;;;;;;;;;5.75;76.51;99499.66;1782608;79;20440;-64
2021/03/15 06:48:27;;;;;;;;;;;;;;;5.75;76.44;99496.99;1782223;79;20235;-68
2021/03/15 06:50:56;;;;;;;;;;;;;;;5.73;76.41;99496.40;1617516;88;20347;-67
2021/03/15 06:53:24;;;;;;;;;;;;;;;5.70;76.48;99493.63;1612867;88;20243;-68
2021/03/15 06:55:53;;;;;;;;;;;;;;;5.70;76.58;99495.48;1617743;87;21994;-67
2021/03/15 06:58:23;;;;;;;;;;;;;;;5.71;76.74;99498.43;1596443;87;20305;-63
2021/03/15 07:01:10;;;;;;;;;;;;;;;5.79;76.66;99499.55;1617381;87;20262;-68
2021/03/15 07:03:38;;;;;;;;;;;;;;;5.87;76.50;99505.16;1600941;88;20289;-67
2021/03/15 07:06:07;;;;;;;;;;;;;;;5.92;76.31;99503.51;1616102;86;20296;-67
2021/03/15 07:08:35;;;;;;;;;;;;;;;5.89;76.21;99509.25;1670946;79;22813;-70
2021/03/15 07:11:05;;;;;;;;;;;;;;;5.86;76.30;99498.19;1788785;79;20303;-67
2021/03/15 07:13:37;;;;;;;;;;;;;;;5.83;76.37;99498.61;1756245;79;20242;-69
2021/03/15 07:16:04;;;;;;;;;;;;;;;5.80;76.49;99491.89;1791970;79;20129;-68
2021/03/15 07:18:33;;;;;;;;;;;;;;;5.82;76.61;99498.33;1788067;79;20212;-72
2021/03/15 07:21:03;;;;;;;;;;;;;;;5.84;76.72;99502.39;1788267;79;22279;-74
2021/03/15 07:23:48;;;;;;;;;;;;;;;5.90;76.64;99494.93;1787709;79;20579;-74
2021/03/15 07:26:19;;;;;;;;;;;;;;;5.92;76.53;99487.55;1770316;79;20290;-75
2021/03/15 07:28:55;;;;;;;;;;;;;;;6.01;76.54;99488.17;1810849;77;20281;-72
2021/03/15 07:31:29;;;;;;;;;;;;;;;6.00;76.55;99489.19;1770769;79;20243;-71
2021/03/15 07:34:02;;;;;;;;;;;;;;;6.07;76.58;99479.34;1802196;79;21291;-72
2021/03/15 07:36:33;;;;;;;;;;;;;;;6.14;76.49;99481.47;1802087;79;20129;-71
2021/03/15 07:39:05;;;;;;;;;;;;;;;6.22;76.32;99479.60;1798477;79;20556;-65
2021/03/15 07:41:39;;;;;;;;;;;;;;;6.27;76.26;99473.11;1797548;79;20486;-76
2021/03/15 07:44:29;;;;;;;;;;;;;;;6.27;75.87;99473.11;1806830;79;20192;-69
2021/03/15 07:46:59;;;;;;;;;;;;;;;6.22;75.75;99467.09;1806103;79;21193;-68
2021/03/15 07:49:30;;;;;;;;;;;;;;;6.14;75.85;99474.81;1803654;79;20185;-68
2021/03/15 07:52:01;;;;;;;;;;;;;;;6.10;76.05;99476.25;1768402;79;20189;-68
2021/03/15 07:54:36;;;;;;;;;;;;;;;6.06;76.17;99483.02;1807342;79;20293;-68
2021/03/15 07:57:23;;;;;;;;;;;;;;;6.03;76.30;99472.80;1805077;79;20313;-68
2021/03/15 07:59:52;;;;;;;;;;;;;;;6.00;76.48;99477.73;1804357;79;21216;-68
2021/03/15 08:02:22;;;;;;;;;;;;;;;6.02;76.61;99471.68;1804964;78;20216;-69
2021/03/15 08:04:51;;;;;;;;;;;;;;;6.06;76.68;99476.37;1804884;79;20141;-69
2021/03/15 08:07:20;;;;;;;;;;;;;;;6.13;76.68;99476.36;1808198;78;20157;-68
2021/03/15 08:09:50;;;;;;;;;;;;;;;6.21;76.53;99473.97;1805741;79;20224;-69
2021/03/15 08:12:18;;;;;;;;;;;;;;;6.21;76.42;99469.97;1797438;78;21198;-69
2021/03/15 08:14:46;;;;;;;;;;;;;;;6.17;76.43;99473.58;1785328;79;20145;-70
2021/03/15 08:17:17;;;;;;;;;;;;;;;6.12;76.51;99471.56;1810596;79;20114;-69
2021/03/15 08:19:47;;;;;;;;;;;;;;;6.12;76.58;99470.72;1773811;79;20230;-69
2021/03/15 08:22:18;;;;;;;;;;;;;;;6.15;76.56;99468.97;1789920;79;20173;-72
2021/03/15 08:24:46;;;;;;;;;;;;;;;6.17;76.53;99475.41;1804528;78;21146;-70
2021/03/15 08:27:14;;;;;;;;;;;;;;;6.17;76.51;99473.58;1804010;78;20166;-68
2021/03/15 08:29:42;;;;;;;;;;;;;;;6.20;76.49;99482.97;1796589;79;20225;-69
2021/03/15 08:32:10;;;;;;;;;;;;;;;6.23;76.41;99475.92;1797426;79;20511;-69
2021/03/15 08:34:38;;;;;;;;;;;;;;;6.26;76.35;99476.83;1799812;79;20264;-69
2021/03/15 08:37:07;;;;;;;;;;;;;;;6.30;76.37;99472.19;1794172;79;21193;-69
2021/03/15 08:39:37;;;;;;;;;;;;;;;6.37;76.29;99482.80;1761103;79;20146;-71
2021/03/15 08:42:15;;;;;;;;;;;;;;;6.44;76.10;99485.44;1787245;79;20158;-68
2021/03/15 08:44:45;;;;;;;;;;;;;;;6.48;75.92;99483.99;1791233;79;20224;-68
2021/03/15 08:47:13;;;;;;;;;;;;;;;6.49;75.81;99485.61;1794976;79;20220;-70
2021/03/15 08:49:43;;;;;;;;;;;;;;;6.45;75.86;99487.89;1791508;79;20111;-71
2021/03/15 08:52:13;;;;;;;;;;;;;;;6.43;75.92;99481.13;1796128;79;20230;-70
2021/03/15 08:54:43;;;;;;;;;;;;;;;6.41;75.99;99477.88;1721444;79;20221;-68
2021/03/15 08:57:32;;;;;;;;;;;;;;;6.38;76.08;99483.11;1796042;79;20130;-68
2021/03/15 09:00:01;;;;;;;;;;;;;;;6.35;76.24;99480.06;1795953;79;20146;-70
2021/03/15 09:02:37;;;;;;;;;;;;;;;6.38;76.42;99480.97;1792267;79;21135;-70
2021/03/15 09:05:24;;;;;;;;;;;;;;;6.41;76.41;99483.20;1791999;79;20126;-69
2021/03/15 09:07:52;;;;;;;;;;;;;;;6.42;76.41;99479.00;1790912;79;20212;-69
2021/03/15 09:10:28;;;;;;;;;;;;;;;6.42;76.49;99485.66;1794958;79;21395;-68
2021/03/15 09:13:22;;;;;;;;;;;;;;;6.43;76.52;99483.30;1792009;79;20507;-68
2021/03/15 09:15:55;;;;;;;;;;;;;;;6.42;76.55;99479.00;1796174;79;21159;-69
2021/03/15 09:18:43;;;;;;;;;;;;;;;6.42;76.64;99481.66;1791653;79;20220;-68
2021/03/15 09:21:27;;;;;;;;;;;;;;;6.44;76.79;99472.94;1793001;79;20217;-69
2021/03/15 09:23:57;;;;;;;;;;;;;;;6.48;76.75;99470.68;1794245;79;20163;-69
2021/03/15 09:26:32;;;;;;;;;;;;;;;6.45;76.75;99467.11;1787489;79;20264;-70
2021/03/15 09:29:00;;;;;;;;;;;;;;;6.43;76.90;99470.48;1798031;79;21381;-68
2021/03/15 09:31:28;;;;;;;;;;;;;;;6.43;76.84;99472.66;1742861;79;20283;-69
2021/03/15 09:33:58;;;;;;;;;;;;;;;6.45;76.89;99475.91;1799697;79;20165;-68
2021/03/15 09:36:27;;;;;;;;;;;;;;;6.46;76.91;99473.55;1764936;79;20282;-69
2021/03/15 09:38:55;;;;;;;;;;;;;;;6.45;76.83;99472.44;1803134;79;20230;-69
2021/03/15 09:41:25;;;;;;;;;;;;;;;6.42;76.92;99478.16;1807335;79;21665;-69
2021/03/15 09:43:55;;;;;;;;;;;;;;;6.44;76.93;99481.45;1805450;79;21038;-69
2021/03/15 09:46:25;;;;;;;;;;;;;;;6.42;76.97;99482.16;1804524;79;20479;-69
2021/03/15 09:48:53;;;;;;;;;;;;;;;6.46;76.98;99474.89;1804953;79;20513;-69
2021/03/15 09:51:28;;;;;;;;;;;;;;;6.55;76.92;99484.78;1805003;79;20149;-68
2021/03/15 09:54:15;;;;;;;;;;;;;;;6.62;76.70;99486.05;1797360;79;21389;-70
2021/03/15 09:56:45;;;;;;;;;;;;;;;6.68;76.58;99479.87;1766611;79;20150;-69
2021/03/15 09:59:17;;;;;;;;;;;;;;;6.75;76.55;99481.17;1799551;79;20272;-69
2021/03/15 10:01:47;;;;;;;;;;;;;;;6.84;76.40;99481.21;1805275;79;20211;-68
2021/03/15 10:04:18;;;;;;;;;;;;;;;6.94;76.12;99479.41;1798505;79;20217;-68
2021/03/15 10:07:06;;;;;;;;;;;;;;;7.00;75.82;99475.87;1802495;79;21260;-68
2021/03/15 10:09:52;;;;;;;;;;;;;;;7.07;75.68;99479.84;1803720;79;20221;-69
2021/03/15 10:12:40;;;;;;;;;;;;;;;7.13;75.51;99475.77;1723614;82;20294;-68
2021/03/15 10:15:19;;;;;;;;;;;;;;;7.30;75.31;99477.39;1820983;77;20184;-70
2021/03/15 10:17:55;;;;;;;;;;;;;;;7.35;74.95;99476.73;1761248;79;20493;-70
2021/03/15 10:20:45;;;;;;;;;;;;;;;7.39;74.49;99475.27;1808228;79;21215;-69
2021/03/15 10:23:18;;;;;;;;;;;;;;;7.44;74.25;99473.28;1814419;79;20141;-68
2021/03/15 10:26:00;;;;;;;;;;;;;;;7.49;74.12;99480.09;1813307;79;20521;-69
2021/03/15 10:28:31;;;;;;;;;;;;;;;7.56;73.92;99474.70;1812893;78;20157;-68
2021/03/15 10:31:08;;;;;;;;;;;;;;;7.58;73.41;99470.76;1809789;79;20148;-69
2021/03/15 10:33:44;;;;;;;;;;;;;;;7.59;73.36;99473.73;1814162;79;21199;-69
2021/03/15 10:36:20;;;;;;;;;;;;;;;7.65;73.26;99468.84;1814244;79;20166;-69
2021/03/15 10:38:49;;;;;;;;;;;;;;;7.72;72.91;99465.59;1812584;79;20251;-68
2021/03/15 10:41:17;;;;;;;;;;;;;;;7.68;70.95;99463.59;1783258;79;20121;-68
2021/03/15 10:43:46;;;;;;;;;;;;;;;7.43;70.55;99459.11;1811487;78;20249;-69
2021/03/15 10:46:29;;;;;;;;;;;;;;;7.21;71.04;99465.88;1826368;77;20714;-69
2021/03/15 10:49:01;;;;;;;;;;;;;;;7.04;71.23;99458.92;1802541;79;20551;-69
2021/03/15 10:51:42;;;;;;;;;;;;;;;6.96;71.41;99451.52;1783604;79;21157;-71
2021/03/15 10:54:28;;;;;;;;;;;;;;;6.91;71.54;99451.34;1764282;80;20135;-72
2021/03/15 10:57:19;;;;;;;;;;;;;;;6.92;71.54;99452.14;1768502;80;20126;-69
2021/03/15 10:59:50;;;;;;;;;;;;;;;6.89;71.65;99444.59;1769500;80;20138;-70
2021/03/15 11:02:22;;;;;;;;;;;;;;;6.80;71.61;99452.86;1766821;80;20150;-70
2021/03/15 11:04:57;;;;;;;;;;;;;;;6.69;71.80;99451.41;1772046;79;21662;-69
2021/03/15 11:07:29;;;;;;;;;;;;;;;6.59;72.12;99451.86;1766557;80;20161;-70
2021/03/15 11:10:05;;;;;;;;;;;;;;;6.62;72.35;99454.09;1771126;80;20541;-69
2021/03/15 11:12:39;;;;;;;;;;;;;;;6.65;72.74;99453.17;1767017;80;20218;-69
2021/03/15 11:15:14;;;;;;;;;;;;;;;6.57;72.97;99444.09;1771489;79;20190;-69
2021/03/15 11:17:59;;;;;;;;;;;;;;;6.46;73.32;99448.26;1767612;80;21572;-69
2021/03/15 11:20:43;;;;;;;;;;;;;;;6.42;73.75;99446.21;1775855;79;20505;-70
2021/03/15 11:23:13;;;;;;;;;;;;;;;6.44;73.98;99440.17;1749633;80;20157;-69
2021/03/15 11:25:41;;;;;;;;;;;;;;;6.45;74.14;99442.63;1768849;80;20243;-69
2021/03/15 11:28:13;;;;;;;;;;;;;;;6.40;74.50;99433.11;1771328;80;20143;-69
2021/03/15 11:30:44;;;;;;;;;;;;;;;6.33;75.01;99412.89;1771563;80;21196;-68
2021/03/15 11:33:20;;;;;;;;;;;;;;;6.15;75.50;99397.11;1766216;80;20695;-69
2021/03/15 11:36:14;;;;;;;;;;;;;;;5.94;76.46;99407.52;1736795;80;20297;-68
2021/03/15 11:39:02;;;;;;;;;;;;;;;5.85;76.87;99434.06;1770010;80;20220;-68
2021/03/15 11:41:32;;;;;;;;;;;;;;;5.94;77.19;99431.47;1774735;80;20535;-67
2021/03/15 11:44:01;;;;;;;;;;;;;;;6.10;77.33;99421.70;1769597;80;21185;-68
2021/03/15 11:46:29;;;;;;;;;;;;;;;6.27;77.10;99420.71;1753441;80;20293;-66
2021/03/15 11:48:57;;;;;;;;;;;;;;;6.38;77.12;99420.55;1733314;81;20241;-68
2021/03/15 11:51:38;;;;;;;;;;;;;;;6.60;77.07;99413.56;1828177;77;20168;-70
2021/03/15 11:54:21;;;;;;;;;;;;;;;6.65;76.58;99403.89;1769635;79;20256;-67
2021/03/15 11:56:51;;;;;;;;;;;;;;;6.70;76.39;99400.58;1794012;79;21275;-69
2021/03/15 11:59:20;;;;;;;;;;;;;;;6.70;76.54;99393.08;1790099;79;20182;-69
2021/03/15 12:01:50;;;;;;;;;;;;;;;6.79;76.51;99391.28;1793270;79;20267;-67
2021/03/15 12:04:18;;;;;;;;;;;;;;;6.83;76.40;99391.16;1772064;79;20184;-67
2021/03/15 12:06:47;;;;;;;;;;;;;;;6.86;76.38;99385.91;1777032;79;20160;-71
2021/03/15 12:09:17;;;;;;;;;;;;;;;6.90;76.08;99388.94;1791578;79;21190;-71
2021/03/15 12:11:49;;;;;;;;;;;;;;;6.91;76.26;99388.73;1792899;79;20141;-68
2021/03/15 12:14:19;;;;;;;;;;;;;;;7.00;75.98;99387.41;1783083;79;20204;-68
2021/03/15 12:16:49;;;;;;;;;;;;;;;7.12;76.16;99384.84;1791553;79;20136;-68
2021/03/15 12:19:17;;;;;;;;;;;;;;;7.23;75.52;99387.83;1785573;79;20151;-68
2021/03/15 12:21:47;;;;;;;;;;;;;;;7.30;75.13;99385.91;1793750;79;21258;-68
2021/03/15 12:24:16;;;;;;;;;;;;;;;7.33;74.66;99384.13;1794236;79;20174;-68
2021/03/15 12:26:46;;;;;;;;;;;;;;;7.31;74.55;99380.36;1789666;79;20334;-69
2021/03/15 12:29:16;;;;;;;;;;;;;;;7.35;74.68;99382.08;1796550;79;20225;-68
2021/03/15 12:31:45;;;;;;;;;;;;;;;7.44;74.49;99383.41;1784937;79;20207;-67
2021/03/15 12:34:14;;;;;;;;;;;;;;;7.42;73.49;99377.50;1791950;79;21663;-68
2021/03/15 12:36:43;;;;;;;;;;;;;;;7.24;73.87;99377.47;1794906;79;20298;-69
2021/03/15 12:39:11;;;;;;;;;;;;;;;7.09;74.26;99379.95;1777552;79;20257;-69
2021/03/15 12:41:40;;;;;;;;;;;;;;;6.98;74.54;99383.36;1791151;79;20313;-67
2021/03/15 12:44:09;;;;;;;;;;;;;;;6.83;74.85;99385.83;1793014;79;20155;-69
2021/03/15 12:46:38;;;;;;;;;;;;;;;6.77;75.26;99381.38;1794002;79;21198;-69
2021/03/15 12:49:11;;;;;;;;;;;;;;;6.82;75.42;99380.19;1792789;79;20202;-68
2021/03/15 12:51:39;;;;;;;;;;;;;;;6.91;75.16;99379.41;1782885;79;20157;-69
2021/03/15 12:54:08;;;;;;;;;;;;;;;6.90;75.12;99370.30;1783115;79;20719;-68
2021/03/15 12:56:40;;;;;;;;;;;;;;;6.93;75.28;99376.52;1782409;79;20215;-67
2021/03/15 12:59:08;;;;;;;;;;;;;;;7.02;75.09;99375.20;1779446;79;21209;-68
2021/03/15 13:01:37;;;;;;;;;;;;;;;7.08;74.39;99378.34;1779103;79;20266;-67
2021/03/15 13:04:07;;;;;;;;;;;;;;;7.12;73.88;99372.05;1781380;79;20130;-67
2021/03/15 13:06:37;;;;;;;;;;;;;;;7.17;73.69;99369.55;1783040;79;20229;-67
2021/03/15 13:09:06;;;;;;;;;;;;;;;7.21;73.47;99372.05;1784705;79;20217;-68
2021/03/15 13:11:52;;;;;;;;;;;;;;;7.18;72.91;99374.66;1783640;79;20142;-68
2021/03/15 13:14:25;;;;;;;;;;;;;;;7.09;72.76;99366.63;1767466;79;20304;-68
2021/03/15 13:17:01;;;;;;;;;;;;;;;7.04;72.61;99374.48;1755157;79;20248;-68
2021/03/15 13:19:29;;;;;;;;;;;;;;;7.01;72.46;99371.73;1780607;79;20279;-68
2021/03/15 13:21:59;;;;;;;;;;;;;;;6.96;72.22;99374.74;1781260;79;20227;-68
2021/03/15 13:24:28;;;;;;;;;;;;;;;6.90;72.35;99379.09;1782027;79;21203;-68